Beach Park, Illinois
Current Conditions -  °F | °C
As of 2:08 AM on Monday 24 Nov 2014 (Local Time) from KUGN Reporting Station
Light Rain Light Rain  
Wind Chill: 44°   Ceiling: 200
Heat Index: 46°   Visibility: 1.5mi
Dew Point: 45°   Wind: 5mph
Humidity: 96%   Direction: 230°SW
Pressure: 29.06"   Gusts: NA
Location:  42.4068°N, 87.8529°W
Report Text: KUGN 240808Z AUTO 23004KT 1 1/2SM -RA BR OVC002 08/07 A2906 RMK AO2 P0001 T00780072
Loading
Personal Weather Stations






























Interactive Weather Map New forecast layout! Learn more

10-Day Weather Forecast

Advertisements
Track Severe Weather on mobile